Mountville, South Carolina
Current Conditions -  °F | °C
As of 8:56 PM on Friday 28 Nov 2014 (Local Time) from KGRD Reporting Station
Clear Clear  
Wind Chill: 33°   Ceiling: Unl
Heat Index: 33°   Visibility: 10mi
Dew Point: 25°   Wind: 0mph
Humidity: 72%   Direction: NA
Pressure: 30.32"   Gusts: NA
Location:  34.36°N, 81.97°W
Report Text: KGRD 290156Z AUTO 00000KT 10SM CLR 01/M04 A3032 RMK AO2 SLP273 T00061039
Loading
Personal Weather Stations






























Interactive Weather Map New forecast layout! Learn more

10-Day Weather Forecast

Advertisements
Track Severe Weather on mobile